Terminal Aerodrome Forecast
Issued by NWS Grand Forks, ND

Home | Current Version | Previous Version | Graphics & Text | Print | Product List | Glossary On
Versions: 1 2 3 4 5 6 7 8 9 10 11 12 13 14 15 16 17 18 19 20 21 22
757
FTUS43 KFGF 050537
TAFGFK
TAF
KGFK 050537Z 0506/0606 17006KT P6SM BKN120
     FM051200 20007KT P6SM BKN050
     FM051600 31006KT P6SM BKN050
     FM052100 29006KT P6SM BKN100=

USA.gov is the U.S. government's official web portal to all federal, state and local government web resources and services.